createdAt,value
2022-12-25T00:01:25.735Z,9.74
2022-12-25T00:03:53.986Z,9.60
2022-12-25T00:06:21.746Z,9.41
2022-12-25T00:08:49.287Z,9.49
2022-12-25T00:11:20.384Z,9.55
2022-12-25T00:13:48.511Z,9.33
2022-12-25T00:16:25.606Z,9.59
2022-12-25T00:18:56.067Z,9.71
2022-12-25T00:21:23.809Z,9.49
2022-12-25T00:23:57.672Z,9.47
2022-12-25T00:26:26.784Z,9.61
2022-12-25T00:28:59.094Z,9.35
2022-12-25T00:31:27.675Z,9.35
2022-12-25T00:33:56.039Z,9.33
2022-12-25T00:36:24.331Z,9.49
2022-12-25T00:38:52.010Z,9.47
2022-12-25T00:41:42.580Z,9.27
2022-12-25T00:44:14.197Z,9.27
2022-12-25T00:46:42.645Z,8.95
2022-12-25T00:49:11.770Z,8.78
2022-12-25T00:51:39.589Z,8.79
2022-12-25T00:54:07.753Z,8.71
2022-12-25T00:56:35.584Z,8.67
2022-12-25T00:59:03.443Z,8.53
2022-12-25T01:01:31.073Z,8.46
2022-12-25T01:03:59.288Z,8.41
2022-12-25T01:06:27.602Z,8.47
2022-12-25T01:09:13.452Z,8.55
2022-12-25T01:11:41.433Z,9.07
2022-12-25T01:14:09.787Z,9.24
2022-12-25T01:16:38.066Z,9.07
2022-12-25T01:19:05.947Z,8.46
2022-12-25T01:21:33.602Z,8.22
2022-12-25T01:24:01.278Z,8.11
2022-12-25T01:26:29.304Z,7.99
2022-12-25T01:28:57.127Z,8.18
2022-12-25T01:31:26.958Z,8.29
2022-12-25T01:33:54.633Z,8.67
2022-12-25T01:36:26.060Z,8.81
2022-12-25T01:38:54.777Z,8.78
2022-12-25T01:41:24.838Z,9.06
2022-12-25T01:44:35.133Z,9.14
2022-12-25T01:47:04.371Z,9.02
2022-12-25T01:49:35.428Z,9.13
2022-12-25T01:52:12.272Z,9.29
2022-12-25T01:54:49.160Z,9.12
2022-12-25T01:57:38.223Z,9.14
2022-12-25T02:00:12.765Z,9.14
2022-12-25T02:02:42.477Z,9.30
2022-12-25T02:05:32.609Z,9.85
2022-12-25T02:08:09.760Z,10.09
2022-12-25T02:10:39.251Z,9.94
2022-12-25T02:13:08.350Z,10.11
2022-12-25T02:15:53.589Z,10.00
2022-12-25T02:18:53.301Z,9.87
2022-12-25T02:21:58.001Z,9.93
2022-12-25T02:25:00.227Z,9.61
2022-12-25T02:28:11.550Z,9.46
2022-12-25T02:30:51.715Z,9.21
2022-12-25T02:34:06.434Z,9.39
2022-12-25T02:36:50.458Z,9.27
2022-12-25T02:39:58.988Z,9.39
2022-12-25T02:42:50.313Z,8.97
2022-12-25T02:46:12.140Z,9.02
2022-12-25T02:49:24.920Z,9.08
2022-12-25T02:52:35.932Z,9.44
2022-12-25T02:55:28.326Z,9.12
2022-12-25T02:58:23.151Z,9.13
2022-12-25T03:01:18.074Z,9.43
2022-12-25T03:04:09.750Z,9.66
2022-12-25T03:06:44.478Z,9.52
2022-12-25T03:09:40.328Z,9.52
2022-12-25T03:12:27.021Z,9.36
2022-12-25T03:15:14.101Z,9.52
2022-12-25T03:17:42.504Z,9.46
2022-12-25T03:20:29.541Z,9.52
2022-12-25T03:23:16.231Z,9.39
2022-12-25T03:26:02.805Z,9.36
2022-12-25T03:28:30.378Z,9.11
2022-12-25T03:31:26.562Z,9.24
2022-12-25T03:34:31.812Z,8.99
2022-12-25T03:37:17.284Z,8.66
2022-12-25T03:40:40.634Z,8.69
2022-12-25T03:43:36.549Z,8.48
2022-12-25T03:46:28.989Z,8.90
2022-12-25T03:49:45.426Z,8.76
2022-12-25T03:52:35.313Z,9.18
2022-12-25T03:55:28.506Z,9.19
2022-12-25T03:58:14.686Z,8.72
2022-12-25T04:01:01.008Z,8.89
2022-12-25T04:03:47.301Z,9.18
2022-12-25T04:06:33.543Z,8.73
2022-12-25T04:09:19.646Z,8.74
2022-12-25T04:12:05.878Z,8.72
2022-12-25T04:14:52.099Z,8.63
2022-12-25T04:17:37.969Z,8.84
2022-12-25T04:20:24.895Z,8.44
2022-12-25T04:23:11.073Z,8.24
2022-12-25T04:25:57.065Z,8.08
2022-12-25T04:28:43.076Z,8.08
2022-12-25T04:31:29.429Z,8.39
2022-12-25T04:34:15.753Z,8.45
2022-12-25T04:36:43.304Z,8.29
2022-12-25T04:39:11.575Z,8.63
2022-12-25T04:41:39.152Z,8.42
2022-12-25T04:44:06.592Z,8.49
2022-12-25T04:46:34.179Z,8.38
2022-12-25T04:49:01.712Z,8.77
2022-12-25T04:51:29.297Z,8.32
2022-12-25T04:53:57.058Z,8.36
2022-12-25T04:56:24.568Z,8.49
2022-12-25T04:58:52.121Z,8.25
2022-12-25T05:01:19.765Z,8.09
2022-12-25T05:03:47.537Z,8.04
2022-12-25T05:06:15.125Z,8.63
2022-12-25T05:08:45.595Z,8.61
2022-12-25T05:11:16.220Z,8.42
2022-12-25T05:13:44.326Z,8.98
2022-12-25T05:16:18.947Z,8.91
2022-12-25T05:18:49.801Z,8.48
2022-12-25T05:21:19.346Z,8.55
2022-12-25T05:23:51.444Z,8.38
2022-12-25T05:26:23.010Z,8.24
2022-12-25T05:28:51.259Z,8.00
2022-12-25T05:31:20.193Z,8.21
2022-12-25T05:33:51.764Z,8.46
2022-12-25T05:36:19.908Z,8.17
2022-12-25T05:38:47.623Z,8.11
2022-12-25T05:41:15.393Z,7.97
2022-12-25T05:43:42.854Z,7.89
2022-12-25T05:46:11.538Z,7.69
2022-12-25T05:48:39.486Z,7.50
2022-12-25T05:51:10.984Z,7.54
2022-12-25T05:53:39.214Z,7.45
2022-12-25T05:56:08.975Z,7.41
2022-12-25T05:58:39.243Z,7.78
2022-12-25T06:01:24.757Z,7.82
2022-12-25T06:03:53.875Z,7.65
2022-12-25T06:06:22.111Z,7.74
2022-12-25T06:08:50.674Z,7.17
2022-12-25T06:11:18.442Z,7.26
2022-12-25T06:13:51.732Z,7.42
2022-12-25T06:16:20.175Z,7.43
2022-12-25T06:18:52.213Z,7.36
2022-12-25T06:21:22.401Z,7.43
2022-12-25T06:23:50.208Z,7.39
2022-12-25T06:26:20.366Z,7.78
2022-12-25T06:28:48.701Z,7.60
2022-12-25T06:31:22.595Z,7.75
2022-12-25T06:33:50.594Z,7.76
2022-12-25T06:36:25.261Z,7.60
2022-12-25T06:38:53.950Z,7.64
2022-12-25T06:41:27.525Z,8.23
2022-12-25T06:43:58.464Z,8.23
2022-12-25T06:46:29.480Z,8.58
2022-12-25T06:48:58.842Z,8.47
2022-12-25T06:51:30.473Z,8.29
2022-12-25T06:53:59.473Z,8.25
2022-12-25T06:56:30.424Z,8.30
2022-12-25T06:59:06.451Z,8.36
2022-12-25T07:01:54.941Z,8.79
2022-12-25T07:04:42.264Z,8.66
2022-12-25T07:07:10.665Z,8.97
2022-12-25T07:09:39.370Z,8.93
2022-12-25T07:12:21.951Z,9.45
2022-12-25T07:14:50.195Z,9.54
2022-12-25T07:17:19.548Z,9.70
2022-12-25T07:19:48.450Z,9.32
2022-12-25T07:22:17.345Z,9.57
2022-12-25T07:24:44.916Z,9.62
2022-12-25T07:27:12.505Z,9.74
2022-12-25T07:29:40.062Z,9.91
2022-12-25T07:32:10.091Z,9.70
2022-12-25T07:34:37.704Z,9.75
2022-12-25T07:37:05.573Z,9.89
2022-12-25T07:39:35.343Z,10.14
2022-12-25T07:42:02.927Z,10.34
2022-12-25T07:44:30.457Z,10.32
2022-12-25T07:46:59.822Z,10.51
2022-12-25T07:49:27.335Z,10.70
2022-12-25T07:51:54.903Z,10.74
2022-12-25T07:54:22.664Z,10.83
2022-12-25T07:56:53.806Z,10.87
2022-12-25T07:59:21.767Z,11.13
2022-12-25T08:01:51.266Z,11.27
2022-12-25T08:04:19.439Z,11.55
2022-12-25T08:06:47.015Z,11.46
2022-12-25T08:09:16.086Z,11.49
2022-12-25T08:11:47.574Z,11.87
2022-12-25T08:14:15.929Z,11.92
2022-12-25T08:16:43.461Z,11.94
2022-12-25T08:19:12.294Z,12.28
2022-12-25T08:21:39.854Z,12.31
2022-12-25T08:24:08.104Z,12.68
2022-12-25T08:26:35.703Z,12.83
2022-12-25T08:29:03.555Z,12.87
2022-12-25T08:31:34.236Z,12.91
2022-12-25T08:34:04.455Z,13.11
2022-12-25T08:36:32.061Z,13.28
2022-12-25T08:39:02.930Z,13.54
2022-12-25T08:41:31.399Z,13.80
2022-12-25T08:43:59.004Z,13.94
2022-12-25T08:46:26.553Z,13.88
2022-12-25T08:48:54.598Z,14.00
2022-12-25T08:51:24.215Z,13.93
2022-12-25T08:53:53.633Z,14.05
2022-12-25T08:56:21.348Z,14.02
2022-12-25T08:58:48.848Z,14.12
2022-12-25T09:01:16.440Z,14.32
2022-12-25T09:03:44.216Z,14.42
2022-12-25T09:06:15.462Z,14.20
2022-12-25T09:08:48.567Z,14.35
2022-12-25T09:11:18.719Z,14.50
2022-12-25T09:13:46.335Z,14.71
2022-12-25T09:16:18.728Z,14.90
2022-12-25T09:18:46.643Z,15.07
2022-12-25T09:21:16.209Z,14.99
2022-12-25T09:23:44.398Z,15.01
2022-12-25T09:26:16.066Z,15.20
2022-12-25T09:28:50.574Z,15.14
2022-12-25T09:31:20.669Z,15.11
2022-12-25T09:33:48.836Z,14.94
2022-12-25T09:36:16.417Z,15.01
2022-12-25T09:38:44.191Z,15.13
2022-12-25T09:41:23.707Z,15.61
2022-12-25T09:44:16.344Z,15.51
2022-12-25T09:46:56.307Z,15.92
2022-12-25T09:49:57.157Z,16.01
2022-12-25T09:52:50.203Z,15.78
2022-12-25T09:55:22.576Z,15.67
2022-12-25T09:57:57.199Z,15.77
2022-12-25T10:00:42.536Z,15.32
2022-12-25T10:03:27.899Z,15.13
2022-12-25T10:06:14.108Z,15.32
2022-12-25T10:09:18.991Z,15.49
2022-12-25T10:12:27.338Z,15.45
2022-12-25T10:15:30.730Z,15.21
2022-12-25T10:18:35.273Z,15.22
2022-12-25T10:21:11.011Z,15.31
2022-12-25T10:24:03.328Z,15.55
2022-12-25T10:26:33.813Z,15.51
2022-12-25T10:29:22.966Z,15.51
2022-12-25T10:31:55.466Z,15.59
2022-12-25T10:34:27.767Z,15.70
2022-12-25T10:36:55.704Z,15.80
2022-12-25T10:39:25.818Z,15.60
2022-12-25T10:42:03.589Z,15.49
2022-12-25T10:44:32.370Z,15.69
2022-12-25T10:47:03.789Z,15.65
2022-12-25T10:49:38.513Z,15.81
2022-12-25T10:52:22.491Z,16.01
2022-12-25T10:54:50.182Z,16.33
2022-12-25T13:15:20.704Z,21.34
2022-12-25T13:17:50.194Z,21.44
2022-12-25T13:20:55.025Z,21.46
2022-12-25T13:23:35.002Z,21.85
2022-12-25T13:26:11.452Z,22.18
2022-12-25T13:28:39.233Z,22.35
2022-12-25T13:31:13.249Z,22.80
2022-12-25T13:34:05.229Z,22.92
2022-12-25T13:36:40.174Z,23.18
2022-12-25T13:39:17.264Z,22.98
2022-12-25T13:42:09.422Z,23.13
2022-12-25T13:44:48.878Z,22.76
2022-12-25T13:47:37.962Z,21.41
2022-12-25T13:50:33.343Z,20.78
2022-12-25T13:53:17.120Z,20.76
2022-12-25T13:55:54.891Z,20.57
2022-12-25T13:58:33.773Z,19.95
2022-12-25T14:01:03.655Z,19.81
2022-12-25T14:03:42.000Z,19.97
2022-12-25T14:06:24.289Z,19.38
2022-12-25T14:08:53.398Z,19.26
2022-12-25T14:11:26.255Z,18.98
2022-12-25T14:14:05.629Z,18.84
2022-12-25T14:16:34.346Z,18.71
2022-12-25T14:19:04.691Z,18.71
2022-12-25T14:21:41.043Z,18.35
2022-12-25T14:24:15.880Z,17.92
2022-12-25T14:26:44.016Z,17.43
2022-12-25T14:29:19.154Z,17.17
2022-12-25T14:31:49.292Z,16.58
2022-12-25T14:34:23.823Z,16.53
2022-12-25T14:36:53.889Z,16.21
2022-12-25T14:39:37.722Z,16.07
2022-12-25T14:42:24.562Z,15.94
2022-12-25T14:45:21.078Z,15.81
2022-12-25T14:47:54.975Z,15.76
2022-12-25T14:50:37.432Z,15.38
2022-12-25T14:53:17.229Z,15.17
2022-12-25T14:55:50.655Z,15.29
2022-12-25T14:58:31.260Z,15.46
2022-12-25T15:01:02.129Z,15.52
2022-12-25T15:03:36.554Z,15.46
2022-12-25T15:06:19.549Z,15.53
2022-12-25T15:09:12.961Z,15.72
2022-12-25T15:11:40.548Z,15.24
2022-12-25T15:14:08.041Z,15.20
2022-12-25T15:16:46.181Z,15.07
2022-12-25T15:19:41.049Z,15.15
2022-12-25T15:22:13.477Z,14.81
2022-12-25T15:24:41.001Z,14.71
2022-12-25T15:27:18.859Z,14.76
2022-12-25T15:30:08.990Z,14.44
2022-12-25T15:32:34.167Z,14.45
2022-12-25T15:35:01.681Z,14.51
2022-12-25T15:37:29.185Z,14.45
2022-12-25T15:39:57.463Z,14.17
2022-12-25T15:42:25.965Z,14.05
2022-12-25T15:44:53.506Z,14.15
2022-12-25T15:47:21.157Z,14.02
2022-12-25T15:49:49.073Z,14.14
2022-12-25T15:52:18.278Z,13.82
2022-12-25T15:54:45.863Z,13.73
2022-12-25T15:57:26.804Z,13.60
2022-12-25T15:59:57.267Z,13.31
2022-12-25T16:02:25.160Z,13.18
2022-12-25T16:04:55.366Z,13.22
2022-12-25T16:07:28.994Z,13.17
2022-12-25T16:10:22.802Z,12.98
2022-12-25T16:12:50.405Z,12.70
2022-12-25T16:15:21.101Z,12.60
2022-12-25T16:17:48.739Z,12.50
2022-12-25T16:20:16.321Z,12.68
2022-12-25T16:22:43.960Z,12.70
2022-12-25T16:25:17.254Z,12.61
2022-12-25T16:27:45.102Z,12.76
2022-12-25T16:30:17.539Z,12.68
2022-12-25T16:32:51.167Z,12.66
2022-12-25T16:35:20.158Z,12.55
2022-12-25T16:37:49.084Z,12.60
2022-12-25T16:40:19.633Z,12.75
2022-12-25T16:42:47.960Z,12.35
2022-12-25T16:45:15.822Z,12.44
2022-12-25T16:47:43.281Z,12.32
2022-12-25T16:50:11.223Z,12.47
2022-12-25T16:52:38.875Z,12.13
2022-12-25T16:55:07.195Z,12.43
2022-12-25T16:57:34.925Z,12.40
2022-12-25T17:00:04.247Z,11.72
2022-12-25T17:02:33.931Z,12.26
2022-12-25T17:05:01.997Z,12.14
2022-12-25T17:07:29.494Z,12.48
2022-12-25T17:10:07.619Z,12.44
2022-12-25T17:12:35.246Z,12.77
2022-12-25T17:15:02.918Z,12.65
2022-12-25T17:17:30.483Z,12.10
2022-12-25T17:19:58.538Z,11.96
2022-12-25T17:22:26.220Z,11.87
2022-12-25T17:24:54.888Z,11.85
2022-12-25T17:27:22.451Z,11.77
2022-12-25T17:29:50.129Z,11.68
2022-12-25T17:32:20.021Z,11.52
2022-12-25T17:34:48.988Z,11.60
2022-12-25T17:37:36.833Z,11.39
2022-12-25T17:40:07.620Z,11.38
2022-12-25T17:42:35.577Z,11.27
2022-12-25T17:45:04.536Z,11.27
2022-12-25T17:47:32.304Z,11.49
2022-12-25T17:50:00.292Z,11.22
2022-12-25T17:52:29.353Z,11.28
2022-12-25T17:54:56.874Z,11.23
2022-12-25T17:57:24.401Z,11.18
2022-12-25T17:59:51.873Z,11.21
2022-12-25T18:02:20.141Z,11.19
2022-12-25T18:04:48.270Z,11.26
2022-12-25T18:07:18.303Z,11.23
2022-12-25T18:09:46.115Z,11.28
2022-12-25T18:12:13.753Z,11.30
2022-12-25T18:14:41.338Z,11.48
2022-12-25T18:17:09.138Z,11.42
2022-12-25T18:19:36.638Z,11.76
2022-12-25T18:22:04.141Z,11.92
2022-12-25T18:24:31.659Z,11.77
2022-12-25T18:26:59.221Z,11.56
2022-12-25T18:29:27.368Z,11.05
2022-12-25T18:31:55.738Z,11.17
2022-12-25T18:34:23.446Z,11.37
2022-12-25T18:36:50.915Z,11.22
2022-12-25T18:39:19.598Z,11.55
2022-12-25T18:42:05.729Z,10.79
2022-12-25T18:44:33.251Z,10.58
2022-12-25T18:47:00.820Z,10.30
2022-12-25T18:49:28.348Z,10.53
2022-12-25T18:52:48.165Z,10.46
2022-12-25T18:54:43.678Z,10.77
2022-12-25T18:57:11.159Z,10.88
2022-12-25T18:59:38.762Z,10.94
2022-12-25T19:02:07.453Z,10.76
2022-12-25T19:04:36.695Z,10.72
2022-12-25T19:07:04.491Z,10.56
2022-12-25T19:09:33.995Z,10.85
2022-12-25T19:12:01.993Z,11.26
2022-12-25T19:14:47.751Z,11.37
2022-12-25T19:17:17.261Z,11.64
2022-12-25T19:19:45.344Z,11.54
2022-12-25T19:22:15.318Z,11.26
2022-12-25T19:24:45.190Z,10.85
2022-12-25T19:27:14.481Z,10.68
2022-12-25T19:29:44.168Z,10.84
2022-12-25T19:32:12.288Z,10.80
2022-12-25T19:34:42.397Z,10.66
2022-12-25T19:37:13.750Z,10.69
2022-12-25T19:39:46.883Z,10.63
2022-12-25T19:42:16.761Z,10.36
2022-12-25T19:44:44.672Z,10.26
2022-12-25T19:47:13.944Z,10.17
2022-12-25T19:49:43.941Z,10.11
2022-12-25T19:52:13.987Z,9.79
2022-12-25T19:54:42.358Z,9.63
2022-12-25T19:57:10.186Z,9.96
2022-12-25T19:59:39.462Z,10.27
2022-12-25T20:02:11.174Z,10.21
2022-12-25T20:04:39.705Z,10.13
2022-12-25T20:07:07.265Z,9.92
2022-12-25T20:09:36.173Z,10.04
2022-12-25T20:12:05.426Z,9.78
2022-12-25T20:14:33.158Z,9.66
2022-12-25T20:17:00.760Z,9.69
2022-12-25T20:19:28.410Z,10.16
2022-12-25T20:21:56.050Z,9.93
2022-12-25T20:24:24.747Z,9.85
2022-12-25T20:26:58.640Z,9.79
2022-12-25T20:29:27.885Z,9.42
2022-12-25T20:31:55.415Z,9.65
2022-12-25T20:34:23.275Z,9.69
2022-12-25T20:36:51.527Z,9.54
2022-12-25T20:39:19.308Z,9.24
2022-12-25T20:41:47.636Z,9.30
2022-12-25T20:44:15.383Z,9.00
2022-12-25T20:46:43.509Z,9.26
2022-12-25T20:49:13.526Z,9.50
2022-12-25T20:51:41.179Z,9.36
2022-12-25T20:54:12.779Z,9.48
2022-12-25T20:56:40.471Z,9.34
2022-12-25T20:59:09.271Z,9.35
2022-12-25T21:01:36.918Z,9.37
2022-12-25T21:04:04.685Z,9.49
2022-12-25T21:06:32.484Z,9.60
2022-12-25T21:09:00.306Z,9.63
2022-12-25T21:11:28.079Z,9.56
2022-12-25T21:13:55.705Z,9.64
2022-12-25T21:16:24.591Z,9.55
2022-12-25T21:18:53.971Z,9.63
2022-12-25T21:21:22.883Z,9.45
2022-12-25T21:23:51.279Z,9.05
2022-12-25T21:26:31.899Z,8.78
2022-12-25T21:29:03.263Z,8.81
2022-12-25T21:31:52.403Z,8.62
2022-12-25T21:34:19.899Z,8.50
2022-12-25T21:36:47.620Z,8.34
2022-12-25T21:39:16.083Z,8.34
2022-12-25T21:41:44.140Z,8.34
2022-12-25T21:44:12.596Z,8.15
2022-12-25T21:46:40.600Z,8.05
2022-12-25T21:49:10.946Z,7.99
2022-12-25T21:51:58.423Z,7.77
2022-12-25T21:54:25.957Z,7.69
2022-12-25T21:56:53.592Z,7.74
2022-12-25T21:59:22.872Z,7.83
2022-12-25T22:01:52.661Z,7.96
2022-12-25T22:04:23.389Z,7.93
2022-12-25T22:07:10.141Z,7.86
2022-12-25T22:09:38.220Z,7.86
2022-12-25T22:12:30.221Z,7.80
2022-12-25T22:15:03.999Z,7.81
2022-12-25T22:17:57.935Z,7.72
2022-12-25T22:20:38.231Z,7.59
2022-12-25T22:23:06.405Z,7.41
2022-12-25T22:25:33.933Z,7.43
2022-12-25T22:28:01.548Z,7.46
2022-12-25T22:30:30.300Z,7.47
2022-12-25T22:32:58.420Z,7.58
2022-12-25T22:35:26.062Z,7.41
2022-12-25T22:37:54.182Z,7.31
2022-12-25T22:40:22.516Z,7.27
2022-12-25T22:42:53.987Z,7.21
2022-12-25T22:45:21.507Z,7.28
2022-12-25T22:47:49.533Z,7.16
2022-12-25T22:50:17.097Z,7.11
2022-12-25T22:52:45.882Z,6.98
2022-12-25T22:55:18.904Z,6.80
2022-12-25T22:57:47.022Z,6.68
2022-12-25T23:00:14.806Z,6.71
2022-12-25T23:02:43.660Z,6.66
2022-12-25T23:05:11.294Z,6.63
2022-12-25T23:07:39.072Z,6.62
2022-12-25T23:10:07.780Z,6.82
2022-12-25T23:12:54.168Z,6.78
2022-12-25T23:15:22.023Z,6.58
2022-12-25T23:18:15.803Z,6.42
2022-12-25T23:21:01.732Z,6.20
2022-12-25T23:23:47.936Z,6.09
2022-12-25T23:26:17.990Z,6.06
2022-12-25T23:29:04.267Z,6.03
2022-12-25T23:31:36.777Z,5.98
2022-12-25T23:34:06.452Z,5.79
2022-12-25T23:36:34.884Z,6.00
2022-12-25T23:39:09.738Z,5.67
2022-12-25T23:41:41.510Z,5.09
2022-12-25T23:44:11.280Z,5.02
2022-12-25T23:46:39.386Z,4.93
2022-12-25T23:49:08.140Z,5.02
2022-12-25T23:51:38.041Z,4.96
2022-12-25T23:54:08.647Z,5.15
2022-12-25T23:56:36.702Z,5.01
2022-12-25T23:59:06.086Z,4.89
